createdAt,value
2019-05-22T00:02:01.714Z,10.60
2019-05-22T00:04:42.432Z,10.60
2019-05-22T00:07:16.065Z,10.60
2019-05-22T00:09:50.306Z,10.60
2019-05-22T00:12:22.505Z,10.60
2019-05-22T00:14:56.352Z,10.50
2019-05-22T00:17:34.403Z,10.50
2019-05-22T00:20:06.983Z,10.40
2019-05-22T00:22:41.512Z,10.40
2019-05-22T00:25:21.027Z,10.30
2019-05-22T00:27:54.867Z,10.30
2019-05-22T00:30:27.584Z,10.20
2019-05-22T00:33:01.464Z,10.20
2019-05-22T00:35:33.942Z,10.20
2019-05-22T00:38:09.050Z,10.30
2019-05-22T00:40:53.296Z,10.30
2019-05-22T00:43:53.140Z,10.30
2019-05-22T00:46:26.122Z,10.20
2019-05-22T00:48:58.232Z,10.10
2019-05-22T00:51:46.090Z,10.10
2019-05-22T00:54:34.955Z,10.10
2019-05-22T00:57:43.181Z,10.10
2019-05-22T01:00:28.350Z,10.10
2019-05-22T01:03:02.480Z,10.00
2019-05-22T01:05:37.454Z,9.90
2019-05-22T01:08:11.294Z,10.00
2019-05-22T01:10:47.618Z,9.80
2019-05-22T01:13:22.068Z,9.80
2019-05-22T01:15:56.021Z,9.70
2019-05-22T01:18:30.234Z,9.70
2019-05-22T01:21:03.939Z,9.70
2019-05-22T01:23:39.154Z,9.70
2019-05-22T01:26:16.147Z,9.60
2019-05-22T01:28:49.920Z,9.60
2019-05-22T01:31:49.893Z,9.70
2019-05-22T01:34:29.526Z,9.60
2019-05-22T01:37:10.159Z,9.60
2019-05-22T01:40:15.303Z,9.50
2019-05-22T01:42:50.522Z,9.50
2019-05-22T01:45:25.229Z,9.50
2019-05-22T01:48:11.400Z,9.50
2019-05-22T01:50:51.215Z,9.50
2019-05-22T01:53:27.348Z,9.40
2019-05-22T01:55:59.587Z,9.40
2019-05-22T01:58:34.257Z,9.30
2019-05-22T02:01:26.782Z,9.40
2019-05-22T02:03:59.999Z,9.40
2019-05-22T02:06:34.445Z,9.40
2019-05-22T02:09:26.563Z,9.50
2019-05-22T02:12:13.853Z,9.50
2019-05-22T02:14:50.800Z,9.50
2019-05-22T02:17:31.769Z,9.40
2019-05-22T02:20:06.697Z,9.30
2019-05-22T02:22:40.846Z,9.40
2019-05-22T02:25:13.064Z,9.40
2019-05-22T02:27:46.813Z,9.40
2019-05-22T02:30:21.864Z,9.40
2019-05-22T02:32:55.518Z,9.40
2019-05-22T02:35:27.718Z,9.40
2019-05-22T02:38:00.693Z,9.40
2019-05-22T02:40:37.525Z,9.40
2019-05-22T02:43:10.734Z,9.40
2019-05-22T02:45:43.894Z,9.40
2019-05-22T02:48:18.194Z,9.40
2019-05-22T02:50:50.036Z,9.40
2019-05-22T02:53:23.560Z,9.30
2019-05-22T02:55:56.347Z,9.30
2019-05-22T02:58:31.362Z,9.40
2019-05-22T03:01:06.512Z,9.30
2019-05-22T03:03:38.955Z,9.30
2019-05-22T03:06:14.388Z,9.30
2019-05-22T03:09:27.863Z,9.30
2019-05-22T03:12:11.698Z,9.30
2019-05-22T03:14:44.931Z,9.20
2019-05-22T03:17:33.711Z,9.20
2019-05-22T03:20:11.788Z,9.30
2019-05-22T03:23:34.556Z,9.30
2019-05-22T03:26:09.644Z,9.30
2019-05-22T03:28:43.089Z,9.30
2019-05-22T03:31:16.109Z,9.40
2019-05-22T03:33:48.700Z,9.50
2019-05-22T03:36:22.327Z,9.60
2019-05-22T03:38:55.513Z,9.70
2019-05-22T03:41:27.942Z,9.90
2019-05-22T03:44:01.413Z,10.00
2019-05-22T03:46:37.245Z,10.00
2019-05-22T03:49:27.905Z,10.20
2019-05-22T03:51:50.892Z,10.30
2019-05-22T03:54:23.034Z,10.50
2019-05-22T03:56:57.301Z,10.70
2019-05-22T03:59:30.346Z,10.80
2019-05-22T04:02:04.428Z,11.00
2019-05-22T04:04:42.178Z,11.10
2019-05-22T04:07:19.652Z,11.30
2019-05-22T04:09:55.383Z,11.40
2019-05-22T04:12:28.676Z,11.60
2019-05-22T04:15:01.585Z,11.80
2019-05-22T04:17:37.378Z,11.90
2019-05-22T04:20:11.866Z,12.10
2019-05-22T04:22:44.148Z,12.30
2019-05-22T04:25:17.266Z,12.50
2019-05-22T04:27:50.057Z,12.60
2019-05-22T04:30:23.117Z,12.80
2019-05-22T04:32:56.892Z,12.70
2019-05-22T04:35:29.583Z,12.70
2019-05-22T04:38:01.879Z,12.70
2019-05-22T04:40:55.954Z,12.70
2019-05-22T04:43:32.933Z,12.70
2019-05-22T04:46:08.455Z,12.80
2019-05-22T04:48:45.555Z,12.80
2019-05-22T04:51:31.295Z,12.80
2019-05-22T04:54:03.632Z,12.80
2019-05-22T04:56:36.641Z,12.90
2019-05-22T04:59:08.969Z,13.00
2019-05-22T05:01:41.667Z,13.10
2019-05-22T05:04:15.158Z,13.20
2019-05-22T05:06:48.128Z,13.30
2019-05-22T05:09:20.775Z,13.50
2019-05-22T05:11:53.611Z,13.70
2019-05-22T05:14:26.345Z,13.80
2019-05-22T05:16:58.520Z,14.00
2019-05-22T05:19:31.216Z,14.10
2019-05-22T05:22:03.908Z,14.20
2019-05-22T05:24:36.401Z,14.30
2019-05-22T05:27:09.592Z,14.50
2019-05-22T05:29:42.028Z,14.60
2019-05-22T05:32:14.735Z,14.70
2019-05-22T05:35:04.833Z,14.80
2019-05-22T05:37:38.300Z,14.80
2019-05-22T05:40:46.522Z,15.00
2019-05-22T05:43:20.526Z,15.10
2019-05-22T05:45:53.996Z,15.30
2019-05-22T05:48:28.487Z,15.50
2019-05-22T05:51:45.581Z,15.60
2019-05-22T05:54:19.165Z,15.60
2019-05-22T05:56:52.426Z,15.70
2019-05-22T05:59:26.664Z,15.90
2019-05-22T06:02:00.638Z,16.00
2019-05-22T06:04:39.851Z,16.20
2019-05-22T06:07:28.240Z,16.40
2019-05-22T06:10:50.911Z,16.60
2019-05-22T06:13:24.525Z,16.80
2019-05-22T06:17:29.263Z,17.10
2019-05-22T06:33:37.042Z,17.60
2019-05-22T06:36:18.866Z,18.30
2019-05-22T06:39:15.591Z,18.20
2019-05-22T06:41:50.160Z,18.00
2019-05-22T06:44:37.327Z,17.90
2019-05-22T06:47:26.053Z,18.00
2019-05-22T07:02:56.381Z,18.00
2019-05-22T07:05:30.101Z,18.70
2019-05-22T07:08:04.716Z,18.80
2019-05-22T07:10:41.650Z,18.90
2019-05-22T07:13:18.035Z,19.10
2019-05-22T07:15:52.364Z,19.20
2019-05-22T07:18:32.266Z,19.30
2019-05-22T07:21:06.817Z,19.40
2019-05-22T07:23:40.353Z,19.30
2019-05-22T07:26:13.185Z,19.40
2019-05-22T07:28:47.611Z,19.50
2019-05-22T07:31:21.407Z,19.70
2019-05-22T07:33:55.029Z,19.80
2019-05-22T07:36:28.660Z,20.00
2019-05-22T07:39:02.025Z,20.10
2019-05-22T07:41:35.467Z,20.10
2019-05-22T07:44:08.925Z,20.00
2019-05-22T07:46:42.228Z,20.00
2019-05-22T07:49:17.257Z,20.10
2019-05-22T07:51:57.500Z,20.30
2019-05-22T07:54:25.307Z,20.40
2019-05-22T07:56:59.908Z,20.50
2019-05-22T07:59:33.389Z,20.70
2019-05-22T08:02:11.165Z,20.80
2019-05-22T08:04:45.218Z,20.90
2019-05-22T08:07:22.350Z,20.70
2019-05-22T08:09:55.758Z,20.70
2019-05-22T08:12:30.161Z,20.90
2019-05-22T08:15:05.223Z,20.80
2019-05-22T08:17:39.759Z,20.70
2019-05-22T08:20:13.984Z,20.90
2019-05-22T08:22:47.897Z,21.00
2019-05-22T08:25:21.179Z,21.10
2019-05-22T08:27:56.405Z,21.20
2019-05-22T08:30:30.284Z,21.30
2019-05-22T08:33:08.342Z,21.10
2019-05-22T08:35:41.423Z,20.90
2019-05-22T08:38:15.386Z,20.70
2019-05-22T08:40:49.971Z,20.50
2019-05-22T08:43:23.827Z,20.40
2019-05-22T08:45:57.344Z,20.50
2019-05-22T08:48:32.955Z,20.40
2019-05-22T08:51:10.865Z,20.30
2019-05-22T08:53:49.069Z,20.40
2019-05-22T08:56:25.390Z,20.50
2019-05-22T08:58:58.697Z,20.70
2019-05-22T09:01:32.432Z,20.70
2019-05-22T09:04:06.239Z,20.70
2019-05-22T09:06:39.351Z,20.80
2019-05-22T09:09:12.703Z,20.90
2019-05-22T09:11:45.930Z,20.90
2019-05-22T09:14:19.210Z,21.20
2019-05-22T09:16:53.381Z,21.40
2019-05-22T09:19:26.824Z,21.70
2019-05-22T09:22:01.030Z,22.00
2019-05-22T09:24:34.786Z,22.00
2019-05-22T09:27:09.276Z,21.90
2019-05-22T09:29:42.231Z,21.60
2019-05-22T09:32:15.268Z,21.40
2019-05-22T09:34:50.351Z,21.20
2019-05-22T09:37:25.394Z,21.10
2019-05-22T09:39:58.822Z,21.10
2019-05-22T09:42:32.967Z,21.10
2019-05-22T09:45:07.739Z,21.10
2019-05-22T09:47:42.314Z,21.10
2019-05-22T09:50:17.333Z,21.10
2019-05-22T09:52:57.466Z,21.20
2019-05-22T09:55:25.701Z,21.40
2019-05-22T09:57:59.209Z,21.80
2019-05-22T10:00:33.055Z,22.10
2019-05-22T10:03:07.137Z,22.40
2019-05-22T10:05:40.879Z,22.40
2019-05-22T10:08:14.119Z,22.20
2019-05-22T10:10:47.906Z,22.00
2019-05-22T10:13:22.531Z,21.80
2019-05-22T10:15:55.921Z,21.70
2019-05-22T10:18:29.363Z,21.80
2019-05-22T10:21:02.741Z,22.10
2019-05-22T10:23:36.041Z,22.40
2019-05-22T10:26:09.531Z,22.80
2019-05-22T10:28:42.912Z,22.90
2019-05-22T10:31:17.842Z,22.80
2019-05-22T10:33:52.007Z,22.90
2019-05-22T10:36:25.541Z,22.80
2019-05-22T10:38:58.707Z,23.00
2019-05-22T10:41:32.332Z,23.20
2019-05-22T10:44:06.500Z,23.10
2019-05-22T10:46:40.098Z,23.00
2019-05-22T10:49:13.761Z,22.80
2019-05-22T10:51:47.238Z,22.80
2019-05-22T10:54:20.222Z,22.70
2019-05-22T10:56:53.445Z,22.90
2019-05-22T10:59:26.574Z,23.40
2019-05-22T11:01:59.682Z,23.90
2019-05-22T11:04:32.586Z,23.90
2019-05-22T11:07:06.109Z,23.80
2019-05-22T11:09:39.994Z,23.80
2019-05-22T11:12:14.209Z,24.10
2019-05-22T11:14:49.452Z,24.40
2019-05-22T11:17:22.559Z,24.50
2019-05-22T11:19:58.456Z,24.60
2019-05-22T11:22:34.978Z,24.50
2019-05-22T11:25:10.427Z,24.40
2019-05-22T11:27:43.873Z,24.20
2019-05-22T11:30:18.811Z,24.10
2019-05-22T11:32:52.616Z,24.20
2019-05-22T11:35:27.589Z,24.40
2019-05-22T11:38:00.735Z,24.60
2019-05-22T11:40:34.146Z,24.70
2019-05-22T11:43:09.300Z,24.80
2019-05-22T11:45:45.127Z,24.80
2019-05-22T11:48:18.116Z,24.80
2019-05-22T11:50:51.941Z,24.90
2019-05-22T11:53:25.440Z,25.00
2019-05-22T11:55:58.921Z,24.90
2019-05-22T11:58:32.440Z,25.00
2019-05-22T12:01:06.804Z,24.90
2019-05-22T12:03:41.256Z,24.90
2019-05-22T12:06:15.472Z,24.90
2019-05-22T12:08:52.121Z,25.00
2019-05-22T12:11:26.163Z,24.90
2019-05-22T12:13:59.608Z,24.40
2019-05-22T12:16:32.938Z,24.00
2019-05-22T12:19:07.225Z,23.90
2019-05-22T12:21:41.300Z,24.00
2019-05-22T12:24:27.114Z,24.20
2019-05-22T12:26:49.044Z,24.20
2019-05-22T12:29:24.755Z,24.10
2019-05-22T12:31:58.168Z,24.20
2019-05-22T12:34:32.816Z,24.20
2019-05-22T12:37:08.688Z,24.10
2019-05-22T12:39:43.029Z,24.10
2019-05-22T12:42:18.189Z,24.10
2019-05-22T12:44:51.648Z,24.50
2019-05-22T12:47:26.181Z,24.50
2019-05-22T12:49:59.403Z,24.50
2019-05-22T12:52:33.268Z,24.70
2019-05-22T12:55:07.701Z,24.50
2019-05-22T12:57:41.021Z,24.40
2019-05-22T13:00:14.891Z,24.30
2019-05-22T13:02:48.908Z,24.10
2019-05-22T13:14:18.308Z,23.70
2019-05-22T13:16:51.975Z,23.50
2019-05-22T13:19:27.118Z,23.50
2019-05-22T13:22:02.762Z,23.70
2019-05-22T13:24:37.053Z,23.90
2019-05-22T13:27:14.019Z,23.90
2019-05-22T13:29:49.753Z,24.00
2019-05-22T13:32:24.474Z,24.10
2019-05-22T13:34:58.775Z,24.20
2019-05-22T13:37:32.144Z,24.20
2019-05-22T13:40:06.354Z,24.30
2019-05-22T13:42:39.769Z,24.40
2019-05-22T13:45:28.435Z,24.30
2019-05-22T13:47:51.688Z,24.50
2019-05-22T13:50:28.688Z,24.50
2019-05-22T13:53:03.289Z,24.40
2019-05-22T13:55:36.823Z,24.20
2019-05-22T13:58:11.341Z,24.40
2019-05-22T14:00:44.754Z,24.60
2019-05-22T14:03:20.014Z,24.80
2019-05-22T14:05:53.807Z,24.90
2019-05-22T14:08:27.104Z,24.70
2019-05-22T14:11:01.423Z,24.30
2019-05-22T14:13:34.728Z,24.00
2019-05-22T14:16:08.587Z,23.70
2019-05-22T14:18:42.151Z,23.70
2019-05-22T14:21:15.467Z,24.00
2019-05-22T14:23:48.570Z,24.20
2019-05-22T14:26:22.062Z,24.40
2019-05-22T14:28:55.105Z,24.50
2019-05-22T14:31:28.845Z,24.70
2019-05-22T14:34:02.232Z,24.70
2019-05-22T14:36:36.713Z,24.70
2019-05-22T14:39:10.598Z,24.70
2019-05-22T14:41:43.531Z,24.80
2019-05-22T14:44:16.520Z,24.80
2019-05-22T14:46:51.116Z,24.80
2019-05-22T14:49:24.448Z,24.70
2019-05-22T14:51:57.820Z,24.60
2019-05-22T14:54:32.346Z,24.70
2019-05-22T14:57:05.873Z,24.60
2019-05-22T14:59:39.311Z,24.50
2019-05-22T15:02:12.684Z,24.30
2019-05-22T15:04:45.928Z,24.00
2019-05-22T15:07:19.001Z,23.80
2019-05-22T15:09:52.216Z,23.60
2019-05-22T15:12:25.816Z,23.50
2019-05-22T15:14:58.722Z,23.70
2019-05-22T15:17:33.231Z,24.10
2019-05-22T15:20:08.701Z,24.30
2019-05-22T15:22:42.508Z,24.60
2019-05-22T15:25:15.847Z,24.50
2019-05-22T15:27:49.258Z,24.30
2019-05-22T15:30:23.374Z,24.10
2019-05-22T15:32:56.786Z,23.90
2019-05-22T15:35:30.639Z,23.60
2019-05-22T15:38:04.093Z,23.40
2019-05-22T15:40:38.418Z,23.20
2019-05-22T15:43:13.257Z,23.00
2019-05-22T15:45:47.216Z,22.80
2019-05-22T15:48:31.788Z,22.60
2019-05-22T15:51:10.357Z,22.40
2019-05-22T15:53:46.126Z,22.20
2019-05-22T15:56:19.702Z,22.00
2019-05-22T15:58:56.556Z,21.80
2019-05-22T16:01:32.531Z,21.60
2019-05-22T16:04:08.131Z,21.50
2019-05-22T16:06:42.276Z,21.30
2019-05-22T16:09:18.317Z,21.10
2019-05-22T16:11:55.859Z,20.90
2019-05-22T16:14:33.477Z,20.60
2019-05-22T16:17:08.339Z,20.40
2019-05-22T16:19:42.452Z,20.20
2019-05-22T16:22:16.283Z,20.00
2019-05-22T16:24:49.820Z,19.90
2019-05-22T16:27:23.828Z,19.60
2019-05-22T16:29:58.416Z,19.30
2019-05-22T16:32:32.022Z,19.00
2019-05-22T16:35:06.557Z,18.80
2019-05-22T16:37:40.896Z,18.60
2019-05-22T16:40:15.591Z,18.50
2019-05-22T16:42:52.994Z,18.40
2019-05-22T16:45:28.868Z,18.20
2019-05-22T16:48:03.848Z,18.20
2019-05-22T16:50:39.288Z,18.20
2019-05-22T16:53:14.343Z,18.10
2019-05-22T16:55:48.558Z,18.10
2019-05-22T16:58:23.060Z,18.10
2019-05-22T17:00:57.335Z,18.10
2019-05-22T17:03:31.876Z,18.10
2019-05-22T17:06:06.406Z,18.10
2019-05-22T17:08:39.983Z,18.10
2019-05-22T17:11:13.843Z,18.10
2019-05-22T17:13:48.982Z,18.00
2019-05-22T17:16:23.661Z,17.90
2019-05-22T17:18:57.612Z,17.70
2019-05-22T17:21:31.978Z,17.70
2019-05-22T17:24:06.017Z,17.50
2019-05-22T17:26:40.577Z,17.40
2019-05-22T17:29:15.939Z,17.40
2019-05-22T17:31:50.233Z,17.30
2019-05-22T17:34:34.004Z,17.20
2019-05-22T17:37:14.551Z,17.20
2019-05-22T17:39:51.239Z,17.30
2019-05-22T17:42:28.422Z,17.20
2019-05-22T17:45:04.696Z,17.10
2019-05-22T17:47:38.267Z,17.00
2019-05-22T17:50:26.082Z,16.90
2019-05-22T17:52:49.782Z,16.90
2019-05-22T17:55:25.419Z,16.80
2019-05-22T17:57:58.971Z,16.80
2019-05-22T18:00:40.233Z,16.70
2019-05-22T18:03:14.806Z,16.50
2019-05-22T18:05:49.005Z,16.30
2019-05-22T18:08:23.612Z,16.10
2019-05-22T18:10:58.140Z,16.10
2019-05-22T18:13:31.811Z,16.10
2019-05-22T18:16:05.813Z,16.00
2019-05-22T18:18:39.172Z,16.10
2019-05-22T18:21:12.610Z,16.10
2019-05-22T18:23:45.900Z,16.00
2019-05-22T18:26:19.503Z,15.90
2019-05-22T18:28:52.879Z,15.90
2019-05-22T18:31:26.429Z,15.80
2019-05-22T18:33:59.864Z,15.60
2019-05-22T18:36:33.642Z,15.50
2019-05-22T18:39:08.045Z,15.40
2019-05-22T18:41:41.646Z,15.40
2019-05-22T18:44:15.327Z,15.30
2019-05-22T18:46:48.717Z,15.30
2019-05-22T18:49:22.145Z,15.20
2019-05-22T18:51:55.607Z,15.20
2019-05-22T18:54:28.642Z,15.20
2019-05-22T18:57:01.987Z,15.20
2019-05-22T18:59:35.176Z,15.20
2019-05-22T19:02:10.090Z,15.20
2019-05-22T19:04:43.387Z,15.10
2019-05-22T19:07:16.744Z,15.10
2019-05-22T19:09:49.988Z,15.10
2019-05-22T19:12:23.544Z,15.10
2019-05-22T19:14:57.010Z,15.10
2019-05-22T19:17:31.187Z,15.10
2019-05-22T19:20:05.403Z,15.00
2019-05-22T19:22:40.038Z,15.00
2019-05-22T19:25:13.527Z,14.90
2019-05-22T19:27:47.050Z,14.90
2019-05-22T19:30:35.406Z,14.80
2019-05-22T19:33:48.502Z,14.80
2019-05-22T19:36:25.555Z,14.70
2019-05-22T19:39:13.074Z,14.60
2019-05-22T19:42:01.358Z,14.50
2019-05-22T19:44:24.807Z,14.40
2019-05-22T19:46:58.212Z,14.30
2019-05-22T19:49:33.385Z,14.20
2019-05-22T19:52:07.703Z,14.10
2019-05-22T19:54:43.546Z,14.10
2019-05-22T19:57:17.506Z,14.10
2019-05-22T19:59:50.671Z,14.00
2019-05-22T20:02:24.350Z,14.00
2019-05-22T20:05:02.053Z,13.90
2019-05-22T20:07:39.572Z,13.90
2019-05-22T20:10:28.228Z,13.80
2019-05-22T20:13:01.869Z,13.70
2019-05-22T20:15:35.419Z,13.50
2019-05-22T20:18:11.420Z,13.50
2019-05-22T20:20:45.427Z,13.40
2019-05-22T20:23:34.541Z,13.30
2019-05-22T20:25:54.651Z,13.20
2019-05-22T20:28:28.622Z,13.20
2019-05-22T20:31:02.282Z,13.20
2019-05-22T20:33:36.649Z,13.10
2019-05-22T20:36:11.144Z,13.00
2019-05-22T20:38:45.621Z,12.90
2019-05-22T20:41:19.365Z,12.90
2019-05-22T20:43:53.138Z,13.00
2019-05-22T20:46:26.740Z,12.90
2019-05-22T20:49:01.094Z,12.90
2019-05-22T20:51:35.171Z,12.90
2019-05-22T20:54:08.345Z,12.80
2019-05-22T20:56:44.327Z,12.70
2019-05-22T20:59:18.652Z,12.70
2019-05-22T21:01:52.114Z,12.60
2019-05-22T21:04:27.585Z,12.60
2019-05-22T21:07:06.657Z,12.70
2019-05-22T21:09:40.858Z,12.70
2019-05-22T21:12:17.508Z,12.70
2019-05-22T21:14:50.763Z,12.70
2019-05-22T21:17:24.672Z,12.80
2019-05-22T21:19:59.101Z,12.70
2019-05-22T21:22:32.464Z,12.70
2019-05-22T21:25:07.337Z,12.70
2019-05-22T21:27:42.405Z,12.70
2019-05-22T21:30:17.228Z,12.70
2019-05-22T21:32:50.553Z,12.70
2019-05-22T21:35:24.877Z,12.70
2019-05-22T21:38:00.273Z,12.60
2019-05-22T21:40:34.072Z,12.60
2019-05-22T21:43:08.748Z,12.60
2019-05-22T21:45:43.570Z,12.60
2019-05-22T21:48:18.381Z,12.70
2019-05-22T21:50:51.888Z,12.70
2019-05-22T21:53:26.344Z,12.70
2019-05-22T21:56:04.640Z,12.70
2019-05-22T21:58:35.282Z,12.70
2019-05-22T22:01:18.339Z,12.70
2019-05-22T22:03:59.304Z,12.70
2019-05-22T22:06:33.458Z,12.80
2019-05-22T22:09:07.911Z,12.80
2019-05-22T22:11:41.777Z,12.70
2019-05-22T22:14:16.406Z,12.70
2019-05-22T22:16:50.484Z,12.80
2019-05-22T22:19:24.016Z,12.80
2019-05-22T22:21:57.321Z,12.90
2019-05-22T22:24:30.718Z,12.90
2019-05-22T22:27:04.289Z,12.90
2019-05-22T22:29:37.818Z,12.90
2019-05-22T22:32:13.478Z,12.90
2019-05-22T22:34:51.588Z,12.90
2019-05-22T22:37:24.921Z,12.90
2019-05-22T22:40:00.427Z,12.90
2019-05-22T22:42:37.022Z,12.90
2019-05-22T22:45:19.230Z,12.90
2019-05-22T22:47:54.346Z,12.90
2019-05-22T22:50:29.020Z,13.00
2019-05-22T22:53:04.191Z,13.00
2019-05-22T22:55:40.338Z,13.00
2019-05-22T22:58:17.579Z,13.00
2019-05-22T23:00:52.693Z,13.00
2019-05-22T23:03:30.289Z,13.10
2019-05-22T23:06:03.946Z,13.20
2019-05-22T23:08:38.183Z,13.30
2019-05-22T23:11:12.400Z,13.30
2019-05-22T23:13:46.335Z,13.40
2019-05-22T23:16:21.214Z,13.30
2019-05-22T23:19:37.753Z,13.30
2019-05-22T23:22:10.502Z,13.40
2019-05-22T23:24:44.693Z,13.40
2019-05-22T23:27:18.054Z,13.50
2019-05-22T23:29:51.229Z,13.50
2019-05-22T23:32:24.340Z,13.60
2019-05-22T23:34:59.747Z,13.60
2019-05-22T23:37:33.057Z,13.60
2019-05-22T23:40:09.074Z,13.60
2019-05-22T23:42:44.582Z,13.60
2019-05-22T23:45:22.277Z,13.60
2019-05-22T23:48:17.039Z,13.60
2019-05-22T23:50:50.484Z,13.60
2019-05-22T23:53:25.335Z,13.50
2019-05-22T23:55:58.963Z,13.40
2019-05-22T23:58:32.916Z,13.30
